sensor_id;sensor_type;location;lat;lon;timestamp;temperature;humidity
3190;DHT22;1606;51.946;10.558;2023-08-06T00:00:26;20.50;99.90
3190;DHT22;1606;51.946;10.558;2023-08-06T00:02:54;20.40;99.90
3190;DHT22;1606;51.946;10.558;2023-08-06T00:05:22;20.30;99.90
3190;DHT22;1606;51.946;10.558;2023-08-06T00:07:50;20.20;99.90
3190;DHT22;1606;51.946;10.558;2023-08-06T00:10:18;20.10;99.90
3190;DHT22;1606;51.946;10.558;2023-08-06T00:12:46;20.20;99.90
3190;DHT22;1606;51.946;10.558;2023-08-06T00:15:15;20.00;99.90
3190;DHT22;1606;51.946;10.558;2023-08-06T00:17:43;20.00;99.90
3190;DHT22;1606;51.946;10.558;2023-08-06T00:20:11;20.00;99.90
3190;DHT22;1606;51.946;10.558;2023-08-06T00:22:40;20.00;99.90
3190;DHT22;1606;51.946;10.558;2023-08-06T00:25:08;20.10;99.90
3190;DHT22;1606;51.946;10.558;2023-08-06T00:27:37;20.20;99.90
3190;DHT22;1606;51.946;10.558;2023-08-06T00:30:06;20.30;99.90
3190;DHT22;1606;51.946;10.558;2023-08-06T00:32:36;20.30;99.90
3190;DHT22;1606;51.946;10.558;2023-08-06T00:35:04;20.40;99.90
3190;DHT22;1606;51.946;10.558;2023-08-06T00:37:32;20.40;99.90
3190;DHT22;1606;51.946;10.558;2023-08-06T00:40:00;20.50;99.90
3190;DHT22;1606;51.946;10.558;2023-08-06T00:42:28;20.40;99.90
3190;DHT22;1606;51.946;10.558;2023-08-06T00:44:56;20.50;99.90
3190;DHT22;1606;51.946;10.558;2023-08-06T00:47:24;20.50;99.90
3190;DHT22;1606;51.946;10.558;2023-08-06T00:49:54;20.30;99.90
3190;DHT22;1606;51.946;10.558;2023-08-06T00:52:22;20.30;99.90
3190;DHT22;1606;51.946;10.558;2023-08-06T00:54:50;20.20;99.90
3190;DHT22;1606;51.946;10.558;2023-08-06T00:57:18;20.20;99.90
3190;DHT22;1606;51.946;10.558;2023-08-06T00:59:47;20.10;99.90
3190;DHT22;1606;51.946;10.558;2023-08-06T01:02:15;20.10;99.90
3190;DHT22;1606;51.946;10.558;2023-08-06T01:04:43;20.10;99.90
3190;DHT22;1606;51.946;10.558;2023-08-06T01:07:19;20.10;99.90
3190;DHT22;1606;51.946;10.558;2023-08-06T01:09:57;20.00;99.90
3190;DHT22;1606;51.946;10.558;2023-08-06T01:12:31;20.00;99.90
3190;DHT22;1606;51.946;10.558;2023-08-06T01:15:09;19.90;99.90
3190;DHT22;1606;51.946;10.558;2023-08-06T01:17:40;19.90;99.90
3190;DHT22;1606;51.946;10.558;2023-08-06T01:20:09;19.80;99.90
3190;DHT22;1606;51.946;10.558;2023-08-06T01:22:38;20.00;99.90
3190;DHT22;1606;51.946;10.558;2023-08-06T01:25:07;20.10;99.90
3190;DHT22;1606;51.946;10.558;2023-08-06T01:27:41;20.10;99.90
3190;DHT22;1606;51.946;10.558;2023-08-06T01:30:13;20.00;99.90
3190;DHT22;1606;51.946;10.558;2023-08-06T01:32:45;20.00;99.90
3190;DHT22;1606;51.946;10.558;2023-08-06T01:35:15;19.90;99.90
3190;DHT22;1606;51.946;10.558;2023-08-06T01:37:46;19.80;99.90
3190;DHT22;1606;51.946;10.558;2023-08-06T01:40:14;19.80;99.90
3190;DHT22;1606;51.946;10.558;2023-08-06T01:42:42;19.50;99.90
3190;DHT22;1606;51.946;10.558;2023-08-06T01:45:10;19.20;99.90
3190;DHT22;1606;51.946;10.558;2023-08-06T01:47:38;19.30;99.90
3190;DHT22;1606;51.946;10.558;2023-08-06T01:50:06;19.40;99.90
3190;DHT22;1606;51.946;10.558;2023-08-06T01:52:34;19.50;99.90
3190;DHT22;1606;51.946;10.558;2023-08-06T01:55:04;19.40;99.90
3190;DHT22;1606;51.946;10.558;2023-08-06T01:57:32;19.50;99.90
3190;DHT22;1606;51.946;10.558;2023-08-06T02:00:00;19.60;99.90
3190;DHT22;1606;51.946;10.558;2023-08-06T02:02:29;19.60;99.90
3190;DHT22;1606;51.946;10.558;2023-08-06T02:04:57;19.70;99.90
3190;DHT22;1606;51.946;10.558;2023-08-06T02:07:25;19.80;99.90
3190;DHT22;1606;51.946;10.558;2023-08-06T02:09:53;19.80;99.90
3190;DHT22;1606;51.946;10.558;2023-08-06T02:12:22;19.80;99.90
3190;DHT22;1606;51.946;10.558;2023-08-06T02:14:51;19.80;99.90
3190;DHT22;1606;51.946;10.558;2023-08-06T02:17:19;19.80;99.90
3190;DHT22;1606;51.946;10.558;2023-08-06T02:19:46;19.80;99.90
3190;DHT22;1606;51.946;10.558;2023-08-06T02:22:14;19.90;99.90
3190;DHT22;1606;51.946;10.558;2023-08-06T02:24:42;19.90;99.90
3190;DHT22;1606;51.946;10.558;2023-08-06T02:27:10;20.00;99.90
3190;DHT22;1606;51.946;10.558;2023-08-06T02:29:41;20.00;99.90
3190;DHT22;1606;51.946;10.558;2023-08-06T02:32:09;20.10;99.90
3190;DHT22;1606;51.946;10.558;2023-08-06T02:34:37;20.10;99.90
3190;DHT22;1606;51.946;10.558;2023-08-06T02:37:05;20.00;99.90
3190;DHT22;1606;51.946;10.558;2023-08-06T02:39:33;20.10;99.90
3190;DHT22;1606;51.946;10.558;2023-08-06T02:42:02;20.10;99.90
3190;DHT22;1606;51.946;10.558;2023-08-06T02:44:30;20.00;99.90
3190;DHT22;1606;51.946;10.558;2023-08-06T02:46:59;20.00;99.90
3190;DHT22;1606;51.946;10.558;2023-08-06T02:49:27;19.90;99.90
3190;DHT22;1606;51.946;10.558;2023-08-06T02:51:55;19.80;99.90
3190;DHT22;1606;51.946;10.558;2023-08-06T02:54:23;19.70;99.90
3190;DHT22;1606;51.946;10.558;2023-08-06T02:56:51;19.60;99.90
3190;DHT22;1606;51.946;10.558;2023-08-06T02:59:19;19.40;99.90
3190;DHT22;1606;51.946;10.558;2023-08-06T03:01:47;19.40;99.90
3190;DHT22;1606;51.946;10.558;2023-08-06T03:04:16;19.50;99.90
3190;DHT22;1606;51.946;10.558;2023-08-06T03:06:45;19.40;99.90
3190;DHT22;1606;51.946;10.558;2023-08-06T03:09:13;19.40;99.90
3190;DHT22;1606;51.946;10.558;2023-08-06T03:11:41;19.40;99.90
3190;DHT22;1606;51.946;10.558;2023-08-06T03:14:09;19.50;99.90
3190;DHT22;1606;51.946;10.558;2023-08-06T03:16:37;19.60;99.90
3190;DHT22;1606;51.946;10.558;2023-08-06T03:19:06;19.60;99.90
3190;DHT22;1606;51.946;10.558;2023-08-06T03:21:35;19.70;99.90
3190;DHT22;1606;51.946;10.558;2023-08-06T03:24:03;19.70;99.90
3190;DHT22;1606;51.946;10.558;2023-08-06T03:26:32;19.80;99.90
3190;DHT22;1606;51.946;10.558;2023-08-06T03:29:00;19.70;99.90
3190;DHT22;1606;51.946;10.558;2023-08-06T03:31:29;19.70;99.90
3190;DHT22;1606;51.946;10.558;2023-08-06T03:33:56;19.70;99.90
3190;DHT22;1606;51.946;10.558;2023-08-06T03:36:24;19.60;99.90
3190;DHT22;1606;51.946;10.558;2023-08-06T03:38:54;19.50;99.90
3190;DHT22;1606;51.946;10.558;2023-08-06T03:41:21;19.60;99.90
3190;DHT22;1606;51.946;10.558;2023-08-06T03:43:49;19.70;99.90
3190;DHT22;1606;51.946;10.558;2023-08-06T03:46:17;19.60;99.90
3190;DHT22;1606;51.946;10.558;2023-08-06T03:48:45;19.60;99.90
3190;DHT22;1606;51.946;10.558;2023-08-06T03:51:13;19.60;99.90
3190;DHT22;1606;51.946;10.558;2023-08-06T03:53:41;19.60;99.90
3190;DHT22;1606;51.946;10.558;2023-08-06T03:56:10;19.50;99.90
3190;DHT22;1606;51.946;10.558;2023-08-06T03:58:38;19.60;99.90
3190;DHT22;1606;51.946;10.558;2023-08-06T04:01:06;19.60;99.90
3190;DHT22;1606;51.946;10.558;2023-08-06T04:03:34;19.40;99.90
3190;DHT22;1606;51.946;10.558;2023-08-06T04:06:02;19.40;99.90
3190;DHT22;1606;51.946;10.558;2023-08-06T04:08:30;19.40;99.90
3190;DHT22;1606;51.946;10.558;2023-08-06T04:10:59;19.40;99.90
3190;DHT22;1606;51.946;10.558;2023-08-06T04:13:28;19.40;99.90
3190;DHT22;1606;51.946;10.558;2023-08-06T04:16:00;19.40;99.90
3190;DHT22;1606;51.946;10.558;2023-08-06T04:18:28;19.40;99.90
3190;DHT22;1606;51.946;10.558;2023-08-06T04:20:56;19.40;99.90
3190;DHT22;1606;51.946;10.558;2023-08-06T04:23:24;19.40;99.90
3190;DHT22;1606;51.946;10.558;2023-08-06T04:25:55;19.50;99.90
3190;DHT22;1606;51.946;10.558;2023-08-06T04:28:23;19.50;99.90
3190;DHT22;1606;51.946;10.558;2023-08-06T04:30:53;19.50;99.90
3190;DHT22;1606;51.946;10.558;2023-08-06T04:33:21;19.50;99.90
3190;DHT22;1606;51.946;10.558;2023-08-06T04:35:54;19.50;99.90
3190;DHT22;1606;51.946;10.558;2023-08-06T04:38:23;19.50;99.90
3190;DHT22;1606;51.946;10.558;2023-08-06T04:40:51;19.50;99.90
3190;DHT22;1606;51.946;10.558;2023-08-06T04:43:19;19.50;99.90
3190;DHT22;1606;51.946;10.558;2023-08-06T04:45:48;19.60;99.90
3190;DHT22;1606;51.946;10.558;2023-08-06T04:48:17;19.70;99.90
3190;DHT22;1606;51.946;10.558;2023-08-06T04:50:46;19.70;99.90
3190;DHT22;1606;51.946;10.558;2023-08-06T04:53:14;19.80;99.90
3190;DHT22;1606;51.946;10.558;2023-08-06T04:55:43;19.80;99.90
3190;DHT22;1606;51.946;10.558;2023-08-06T04:58:11;19.80;99.90
3190;DHT22;1606;51.946;10.558;2023-08-06T05:00:40;19.80;99.90
3190;DHT22;1606;51.946;10.558;2023-08-06T05:03:07;19.70;99.90
3190;DHT22;1606;51.946;10.558;2023-08-06T05:05:38;19.80;99.90
3190;DHT22;1606;51.946;10.558;2023-08-06T05:08:07;19.80;99.90
3190;DHT22;1606;51.946;10.558;2023-08-06T05:10:35;19.80;99.90
3190;DHT22;1606;51.946;10.558;2023-08-06T05:13:04;19.80;99.90
3190;DHT22;1606;51.946;10.558;2023-08-06T05:15:31;19.80;99.90
3190;DHT22;1606;51.946;10.558;2023-08-06T05:17:59;19.90;99.90
3190;DHT22;1606;51.946;10.558;2023-08-06T05:20:27;19.90;99.90
3190;DHT22;1606;51.946;10.558;2023-08-06T05:22:57;19.80;99.90
3190;DHT22;1606;51.946;10.558;2023-08-06T05:25:24;19.80;99.90
3190;DHT22;1606;51.946;10.558;2023-08-06T05:27:52;19.70;99.90
3190;DHT22;1606;51.946;10.558;2023-08-06T05:30:20;19.70;99.90
3190;DHT22;1606;51.946;10.558;2023-08-06T05:32:48;19.60;99.90
3190;DHT22;1606;51.946;10.558;2023-08-06T05:35:16;19.60;99.90
3190;DHT22;1606;51.946;10.558;2023-08-06T05:37:44;19.70;99.90
3190;DHT22;1606;51.946;10.558;2023-08-06T05:40:13;19.70;99.90
3190;DHT22;1606;51.946;10.558;2023-08-06T05:42:41;19.60;99.90
3190;DHT22;1606;51.946;10.558;2023-08-06T05:45:10;19.60;99.90
3190;DHT22;1606;51.946;10.558;2023-08-06T05:47:38;19.60;99.90
3190;DHT22;1606;51.946;10.558;2023-08-06T05:50:07;19.70;99.90
3190;DHT22;1606;51.946;10.558;2023-08-06T05:52:35;19.70;99.90
3190;DHT22;1606;51.946;10.558;2023-08-06T05:55:03;19.70;99.90
3190;DHT22;1606;51.946;10.558;2023-08-06T05:57:33;19.60;99.90
3190;DHT22;1606;51.946;10.558;2023-08-06T06:00:01;19.70;99.90
3190;DHT22;1606;51.946;10.558;2023-08-06T06:02:29;19.70;99.90
3190;DHT22;1606;51.946;10.558;2023-08-06T06:04:57;19.70;99.90
3190;DHT22;1606;51.946;10.558;2023-08-06T06:07:25;19.70;99.90
3190;DHT22;1606;51.946;10.558;2023-08-06T06:09:53;19.70;99.90
3190;DHT22;1606;51.946;10.558;2023-08-06T06:12:20;19.70;99.90
3190;DHT22;1606;51.946;10.558;2023-08-06T06:14:50;19.70;99.90
3190;DHT22;1606;51.946;10.558;2023-08-06T06:17:18;19.80;99.90
3190;DHT22;1606;51.946;10.558;2023-08-06T06:19:46;19.80;99.90
3190;DHT22;1606;51.946;10.558;2023-08-06T06:22:14;19.80;99.90
3190;DHT22;1606;51.946;10.558;2023-08-06T06:24:42;19.90;99.90
3190;DHT22;1606;51.946;10.558;2023-08-06T06:27:10;19.90;99.90
3190;DHT22;1606;51.946;10.558;2023-08-06T06:29:39;19.70;99.90
3190;DHT22;1606;51.946;10.558;2023-08-06T06:32:08;19.70;99.90
3190;DHT22;1606;51.946;10.558;2023-08-06T06:34:36;19.80;99.90
3190;DHT22;1606;51.946;10.558;2023-08-06T06:37:04;19.80;99.90
3190;DHT22;1606;51.946;10.558;2023-08-06T06:39:32;19.70;99.90
3190;DHT22;1606;51.946;10.558;2023-08-06T06:42:00;19.70;99.90
3190;DHT22;1606;51.946;10.558;2023-08-06T06:44:28;19.70;99.90
3190;DHT22;1606;51.946;10.558;2023-08-06T06:46:56;19.60;99.90
3190;DHT22;1606;51.946;10.558;2023-08-06T06:49:25;19.70;99.90
3190;DHT22;1606;51.946;10.558;2023-08-06T06:51:53;19.70;99.90
3190;DHT22;1606;51.946;10.558;2023-08-06T06:54:21;19.60;99.90
3190;DHT22;1606;51.946;10.558;2023-08-06T06:56:49;19.70;99.90
3190;DHT22;1606;51.946;10.558;2023-08-06T06:59:17;19.60;99.90
3190;DHT22;1606;51.946;10.558;2023-08-06T07:01:45;19.70;99.90
3190;DHT22;1606;51.946;10.558;2023-08-06T07:04:13;19.70;99.90
3190;DHT22;1606;51.946;10.558;2023-08-06T07:06:42;19.90;99.90
3190;DHT22;1606;51.946;10.558;2023-08-06T07:09:10;19.90;99.90
3190;DHT22;1606;51.946;10.558;2023-08-06T07:11:38;19.90;99.90
3190;DHT22;1606;51.946;10.558;2023-08-06T07:14:07;20.00;99.90
3190;DHT22;1606;51.946;10.558;2023-08-06T07:16:35;20.10;99.90
3190;DHT22;1606;51.946;10.558;2023-08-06T07:19:03;20.20;99.90
3190;DHT22;1606;51.946;10.558;2023-08-06T07:21:32;20.10;99.90
3190;DHT22;1606;51.946;10.558;2023-08-06T07:24:01;20.20;99.90
3190;DHT22;1606;51.946;10.558;2023-08-06T07:26:29;20.30;99.90
3190;DHT22;1606;51.946;10.558;2023-08-06T07:28:57;20.40;99.90
3190;DHT22;1606;51.946;10.558;2023-08-06T07:31:25;20.60;99.90
3190;DHT22;1606;51.946;10.558;2023-08-06T07:33:53;20.50;99.90
3190;DHT22;1606;51.946;10.558;2023-08-06T07:36:21;20.40;99.90
3190;DHT22;1606;51.946;10.558;2023-08-06T07:38:49;20.70;99.90
3190;DHT22;1606;51.946;10.558;2023-08-06T07:41:23;20.90;99.90
3190;DHT22;1606;51.946;10.558;2023-08-06T07:43:51;21.20;99.90
3190;DHT22;1606;51.946;10.558;2023-08-06T07:46:19;21.40;99.90
3190;DHT22;1606;51.946;10.558;2023-08-06T07:48:47;21.50;99.90
3190;DHT22;1606;51.946;10.558;2023-08-06T07:51:15;21.70;99.90
3190;DHT22;1606;51.946;10.558;2023-08-06T07:53:43;21.80;99.90
3190;DHT22;1606;51.946;10.558;2023-08-06T07:56:11;21.80;99.90
3190;DHT22;1606;51.946;10.558;2023-08-06T07:58:40;21.90;99.90
3190;DHT22;1606;51.946;10.558;2023-08-06T08:01:08;22.10;99.90
3190;DHT22;1606;51.946;10.558;2023-08-06T08:03:36;22.30;99.90
3190;DHT22;1606;51.946;10.558;2023-08-06T08:06:04;22.50;99.90
3190;DHT22;1606;51.946;10.558;2023-08-06T08:08:32;22.60;99.90
3190;DHT22;1606;51.946;10.558;2023-08-06T08:10:59;22.80;99.90
3190;DHT22;1606;51.946;10.558;2023-08-06T08:13:28;22.60;99.90
3190;DHT22;1606;51.946;10.558;2023-08-06T08:15:58;22.70;99.90
3190;DHT22;1606;51.946;10.558;2023-08-06T08:18:26;22.60;99.90
3190;DHT22;1606;51.946;10.558;2023-08-06T08:20:54;22.50;99.90
3190;DHT22;1606;51.946;10.558;2023-08-06T08:23:22;22.30;99.90
3190;DHT22;1606;51.946;10.558;2023-08-06T08:25:50;22.30;99.90
3190;DHT22;1606;51.946;10.558;2023-08-06T08:28:18;22.40;99.90
3190;DHT22;1606;51.946;10.558;2023-08-06T08:30:45;22.60;99.90
3190;DHT22;1606;51.946;10.558;2023-08-06T08:33:15;22.80;99.90
3190;DHT22;1606;51.946;10.558;2023-08-06T08:35:43;23.20;99.90
3190;DHT22;1606;51.946;10.558;2023-08-06T08:38:13;23.60;99.90
3190;DHT22;1606;51.946;10.558;2023-08-06T08:40:45;23.70;99.90
3190;DHT22;1606;51.946;10.558;2023-08-06T08:43:15;23.60;99.90
3190;DHT22;1606;51.946;10.558;2023-08-06T08:45:44;23.50;99.90
3190;DHT22;1606;51.946;10.558;2023-08-06T08:48:18;23.70;99.90
3190;DHT22;1606;51.946;10.558;2023-08-06T08:50:48;23.70;99.90
3190;DHT22;1606;51.946;10.558;2023-08-06T08:53:17;23.60;99.90
3190;DHT22;1606;51.946;10.558;2023-08-06T08:55:48;23.70;99.90
3190;DHT22;1606;51.946;10.558;2023-08-06T08:58:16;23.70;99.90
3190;DHT22;1606;51.946;10.558;2023-08-06T09:00:46;23.50;98.50
3190;DHT22;1606;51.946;10.558;2023-08-06T09:03:14;23.60;99.30
3190;DHT22;1606;51.946;10.558;2023-08-06T09:05:45;23.80;99.90
3190;DHT22;1606;51.946;10.558;2023-08-06T09:08:18;23.70;99.90
3190;DHT22;1606;51.946;10.558;2023-08-06T09:10:49;23.70;99.80
3190;DHT22;1606;51.946;10.558;2023-08-06T09:13:17;23.70;98.80
3190;DHT22;1606;51.946;10.558;2023-08-06T09:15:46;23.60;99.80
3190;DHT22;1606;51.946;10.558;2023-08-06T09:18:25;23.90;99.70
3190;DHT22;1606;51.946;10.558;2023-08-06T09:20:56;24.10;99.10
3190;DHT22;1606;51.946;10.558;2023-08-06T09:23:27;24.30;98.80
3190;DHT22;1606;51.946;10.558;2023-08-06T09:25:57;24.50;99.20
3190;DHT22;1606;51.946;10.558;2023-08-06T09:28:26;24.40;99.20
3190;DHT22;1606;51.946;10.558;2023-08-06T09:31:03;24.50;98.80
3190;DHT22;1606;51.946;10.558;2023-08-06T09:33:31;24.50;97.50
3190;DHT22;1606;51.946;10.558;2023-08-06T09:36:07;24.80;98.00
3190;DHT22;1606;51.946;10.558;2023-08-06T09:38:38;24.90;98.30
3190;DHT22;1606;51.946;10.558;2023-08-06T09:41:07;25.00;96.70
3190;DHT22;1606;51.946;10.558;2023-08-06T09:43:41;25.00;99.00
3190;DHT22;1606;51.946;10.558;2023-08-06T09:46:13;25.10;97.30
3190;DHT22;1606;51.946;10.558;2023-08-06T09:48:45;25.30;96.50
3190;DHT22;1606;51.946;10.558;2023-08-06T09:51:14;25.60;96.60
3190;DHT22;1606;51.946;10.558;2023-08-06T09:53:43;25.50;96.30
3190;DHT22;1606;51.946;10.558;2023-08-06T09:56:12;25.00;96.20
3190;DHT22;1606;51.946;10.558;2023-08-06T09:58:41;24.50;97.30
3190;DHT22;1606;51.946;10.558;2023-08-06T10:01:11;24.50;97.50
3190;DHT22;1606;51.946;10.558;2023-08-06T10:03:40;24.90;96.90
3190;DHT22;1606;51.946;10.558;2023-08-06T10:06:08;25.30;96.00
3190;DHT22;1606;51.946;10.558;2023-08-06T10:08:38;25.50;95.40
3190;DHT22;1606;51.946;10.558;2023-08-06T10:11:08;25.80;96.00
3190;DHT22;1606;51.946;10.558;2023-08-06T10:13:37;25.70;96.60
3190;DHT22;1606;51.946;10.558;2023-08-06T10:16:06;26.10;96.00
3190;DHT22;1606;51.946;10.558;2023-08-06T10:18:36;25.90;96.60
3190;DHT22;1606;51.946;10.558;2023-08-06T10:21:07;25.80;95.30
3190;DHT22;1606;51.946;10.558;2023-08-06T10:23:39;25.70;96.00
3190;DHT22;1606;51.946;10.558;2023-08-06T10:26:08;25.90;96.10
3190;DHT22;1606;51.946;10.558;2023-08-06T10:28:37;25.90;96.40
3190;DHT22;1606;51.946;10.558;2023-08-06T10:31:05;26.00;96.10
3190;DHT22;1606;51.946;10.558;2023-08-06T10:33:43;25.80;95.30
3190;DHT22;1606;51.946;10.558;2023-08-06T10:36:12;26.00;94.90
3190;DHT22;1606;51.946;10.558;2023-08-06T10:38:45;26.00;95.10
3190;DHT22;1606;51.946;10.558;2023-08-06T10:41:23;25.60;96.30
3190;DHT22;1606;51.946;10.558;2023-08-06T10:43:51;25.40;95.40
3190;DHT22;1606;51.946;10.558;2023-08-06T10:46:25;25.40;95.80
3190;DHT22;1606;51.946;10.558;2023-08-06T10:48:54;25.60;95.80
3190;DHT22;1606;51.946;10.558;2023-08-06T10:51:22;25.60;96.50
3190;DHT22;1606;51.946;10.558;2023-08-06T10:53:51;25.70;95.60
3190;DHT22;1606;51.946;10.558;2023-08-06T10:56:20;25.60;95.10
3190;DHT22;1606;51.946;10.558;2023-08-06T10:58:50;25.70;93.90
3190;DHT22;1606;51.946;10.558;2023-08-06T11:01:19;25.60;96.20
3190;DHT22;1606;51.946;10.558;2023-08-06T11:03:49;25.40;95.60
3190;DHT22;1606;51.946;10.558;2023-08-06T11:06:20;25.50;94.20
3190;DHT22;1606;51.946;10.558;2023-08-06T11:08:51;25.60;94.60
3190;DHT22;1606;51.946;10.558;2023-08-06T11:11:20;25.80;94.60
3190;DHT22;1606;51.946;10.558;2023-08-06T11:13:49;25.80;94.90
3190;DHT22;1606;51.946;10.558;2023-08-06T11:16:19;25.40;97.20
3190;DHT22;1606;51.946;10.558;2023-08-06T11:18:47;24.90;98.90
3190;DHT22;1606;51.946;10.558;2023-08-06T11:21:19;24.40;99.40
3190;DHT22;1606;51.946;10.558;2023-08-06T11:23:47;24.00;99.90
3190;DHT22;1606;51.946;10.558;2023-08-06T11:26:19;23.70;99.90
3190;DHT22;1606;51.946;10.558;2023-08-06T11:28:48;23.40;99.90
3190;DHT22;1606;51.946;10.558;2023-08-06T11:31:22;23.40;99.90
3190;DHT22;1606;51.946;10.558;2023-08-06T11:33:50;23.40;99.90
3190;DHT22;1606;51.946;10.558;2023-08-06T11:36:28;23.60;99.90
3190;DHT22;1606;51.946;10.558;2023-08-06T11:38:56;23.70;99.90
3190;DHT22;1606;51.946;10.558;2023-08-06T11:41:27;23.80;99.90
3190;DHT22;1606;51.946;10.558;2023-08-06T11:43:56;23.90;99.90
3190;DHT22;1606;51.946;10.558;2023-08-06T11:46:24;24.00;99.90
3190;DHT22;1606;51.946;10.558;2023-08-06T11:48:52;24.00;99.90
3190;DHT22;1606;51.946;10.558;2023-08-06T11:51:22;24.00;99.90
3190;DHT22;1606;51.946;10.558;2023-08-06T11:53:51;23.90;99.90
3190;DHT22;1606;51.946;10.558;2023-08-06T11:56:19;23.90;99.90
3190;DHT22;1606;51.946;10.558;2023-08-06T11:58:48;24.00;99.90
3190;DHT22;1606;51.946;10.558;2023-08-06T12:01:16;24.30;99.90
3190;DHT22;1606;51.946;10.558;2023-08-06T12:03:45;24.60;99.90
3190;DHT22;1606;51.946;10.558;2023-08-06T12:06:13;24.70;99.90
3190;DHT22;1606;51.946;10.558;2023-08-06T12:08:41;25.00;99.90
3190;DHT22;1606;51.946;10.558;2023-08-06T12:11:09;24.80;97.60
3190;DHT22;1606;51.946;10.558;2023-08-06T12:13:37;24.70;99.90
3190;DHT22;1606;51.946;10.558;2023-08-06T12:16:06;25.00;99.40
3190;DHT22;1606;51.946;10.558;2023-08-06T12:18:34;25.30;98.20
3190;DHT22;1606;51.946;10.558;2023-08-06T12:21:02;25.60;99.80
3190;DHT22;1606;51.946;10.558;2023-08-06T12:23:30;26.00;98.50
3190;DHT22;1606;51.946;10.558;2023-08-06T12:25:59;26.30;97.10
3190;DHT22;1606;51.946;10.558;2023-08-06T12:28:27;26.50;96.50
3190;DHT22;1606;51.946;10.558;2023-08-06T12:30:55;26.80;96.80
3190;DHT22;1606;51.946;10.558;2023-08-06T12:33:24;27.00;96.30
3190;DHT22;1606;51.946;10.558;2023-08-06T12:35:52;27.30;94.50
3190;DHT22;1606;51.946;10.558;2023-08-06T12:38:21;27.30;95.00
3190;DHT22;1606;51.946;10.558;2023-08-06T12:40:49;27.60;95.10
3190;DHT22;1606;51.946;10.558;2023-08-06T12:43:17;27.20;91.70
3190;DHT22;1606;51.946;10.558;2023-08-06T12:45:45;27.00;92.90
3190;DHT22;1606;51.946;10.558;2023-08-06T12:48:13;27.10;92.10
3190;DHT22;1606;51.946;10.558;2023-08-06T12:50:41;27.00;93.20
3190;DHT22;1606;51.946;10.558;2023-08-06T12:53:09;27.30;92.60
3190;DHT22;1606;51.946;10.558;2023-08-06T12:55:37;27.60;90.80
3190;DHT22;1606;51.946;10.558;2023-08-06T12:58:07;27.60;90.80
3190;DHT22;1606;51.946;10.558;2023-08-06T13:00:35;27.40;90.50
3190;DHT22;1606;51.946;10.558;2023-08-06T13:03:03;27.10;89.90
3190;DHT22;1606;51.946;10.558;2023-08-06T13:05:31;27.00;90.20
3190;DHT22;1606;51.946;10.558;2023-08-06T13:08:00;26.90;91.10
3190;DHT22;1606;51.946;10.558;2023-08-06T13:10:28;27.00;91.10
3190;DHT22;1606;51.946;10.558;2023-08-06T13:12:58;27.00;88.90
3190;DHT22;1606;51.946;10.558;2023-08-06T13:15:25;27.50;88.90
3190;DHT22;1606;51.946;10.558;2023-08-06T13:17:53;27.30;88.30
3190;DHT22;1606;51.946;10.558;2023-08-06T13:20:21;27.40;90.40
3190;DHT22;1606;51.946;10.558;2023-08-06T13:22:51;27.00;88.60
3190;DHT22;1606;51.946;10.558;2023-08-06T13:25:21;26.60;92.00
3190;DHT22;1606;51.946;10.558;2023-08-06T13:27:50;26.30;90.60
3190;DHT22;1606;51.946;10.558;2023-08-06T13:30:18;26.20;91.30
3190;DHT22;1606;51.946;10.558;2023-08-06T13:32:46;26.60;91.00
3190;DHT22;1606;51.946;10.558;2023-08-06T13:35:14;26.80;91.40
3190;DHT22;1606;51.946;10.558;2023-08-06T13:37:42;27.00;91.00
3190;DHT22;1606;51.946;10.558;2023-08-06T13:40:10;27.30;88.40
3190;DHT22;1606;51.946;10.558;2023-08-06T13:42:40;27.50;87.80
3190;DHT22;1606;51.946;10.558;2023-08-06T13:45:08;27.30;87.80
3190;DHT22;1606;51.946;10.558;2023-08-06T13:47:36;26.90;88.90
3190;DHT22;1606;51.946;10.558;2023-08-06T13:50:05;26.90;89.10
3190;DHT22;1606;51.946;10.558;2023-08-06T13:52:33;26.60;90.70
3190;DHT22;1606;51.946;10.558;2023-08-06T13:55:01;26.70;89.60
3190;DHT22;1606;51.946;10.558;2023-08-06T13:57:30;26.60;90.30
3190;DHT22;1606;51.946;10.558;2023-08-06T13:59:59;26.60;90.70
3190;DHT22;1606;51.946;10.558;2023-08-06T14:02:28;26.30;91.30
3190;DHT22;1606;51.946;10.558;2023-08-06T14:04:56;26.40;91.40
3190;DHT22;1606;51.946;10.558;2023-08-06T14:07:24;26.70;91.10
3190;DHT22;1606;51.946;10.558;2023-08-06T14:09:51;26.60;91.10
3190;DHT22;1606;51.946;10.558;2023-08-06T14:12:19;26.30;90.00
3190;DHT22;1606;51.946;10.558;2023-08-06T14:14:47;26.10;90.30
3190;DHT22;1606;51.946;10.558;2023-08-06T14:17:16;26.10;90.60
3190;DHT22;1606;51.946;10.558;2023-08-06T14:19:44;25.60;91.30
3190;DHT22;1606;51.946;10.558;2023-08-06T14:22:12;25.50;92.50
3190;DHT22;1606;51.946;10.558;2023-08-06T14:24:40;25.70;92.60
3190;DHT22;1606;51.946;10.558;2023-08-06T14:27:08;25.80;91.30
3190;DHT22;1606;51.946;10.558;2023-08-06T14:29:36;25.80;91.50
3190;DHT22;1606;51.946;10.558;2023-08-06T14:32:05;25.80;91.60
3190;DHT22;1606;51.946;10.558;2023-08-06T14:34:34;25.80;91.50
3190;DHT22;1606;51.946;10.558;2023-08-06T14:37:03;26.00;91.80
3190;DHT22;1606;51.946;10.558;2023-08-06T14:39:31;25.70;91.70
3190;DHT22;1606;51.946;10.558;2023-08-06T14:41:59;25.80;92.00
3190;DHT22;1606;51.946;10.558;2023-08-06T14:44:26;25.90;92.40
3190;DHT22;1606;51.946;10.558;2023-08-06T14:46:54;25.70;92.60
3190;DHT22;1606;51.946;10.558;2023-08-06T14:49:23;25.40;93.30
3190;DHT22;1606;51.946;10.558;2023-08-06T14:51:52;24.90;94.50
3190;DHT22;1606;51.946;10.558;2023-08-06T14:54:20;24.70;94.90
3190;DHT22;1606;51.946;10.558;2023-08-06T14:56:48;24.40;95.30
3190;DHT22;1606;51.946;10.558;2023-08-06T14:59:16;24.30;95.80
3190;DHT22;1606;51.946;10.558;2023-08-06T15:01:44;24.40;96.90
3190;DHT22;1606;51.946;10.558;2023-08-06T15:04:11;24.40;96.10
3190;DHT22;1606;51.946;10.558;2023-08-06T15:06:39;24.50;97.90
3190;DHT22;1606;51.946;10.558;2023-08-06T15:09:09;24.50;98.20
3190;DHT22;1606;51.946;10.558;2023-08-06T15:11:36;24.60;99.00
3190;DHT22;1606;51.946;10.558;2023-08-06T15:14:05;24.60;97.40
3190;DHT22;1606;51.946;10.558;2023-08-06T15:16:33;24.60;98.30
3190;DHT22;1606;51.946;10.558;2023-08-06T15:19:01;24.60;98.50
3190;DHT22;1606;51.946;10.558;2023-08-06T15:21:29;24.60;99.20
3190;DHT22;1606;51.946;10.558;2023-08-06T15:23:57;24.80;99.10
3190;DHT22;1606;51.946;10.558;2023-08-06T15:26:27;25.00;99.80
3190;DHT22;1606;51.946;10.558;2023-08-06T15:28:55;25.20;99.60
3190;DHT22;1606;51.946;10.558;2023-08-06T15:31:23;25.40;99.00
3190;DHT22;1606;51.946;10.558;2023-08-06T15:33:51;25.50;99.90
3190;DHT22;1606;51.946;10.558;2023-08-06T15:36:20;25.60;99.90
3190;DHT22;1606;51.946;10.558;2023-08-06T15:38:48;25.50;99.90
3190;DHT22;1606;51.946;10.558;2023-08-06T15:41:16;25.40;99.90
3190;DHT22;1606;51.946;10.558;2023-08-06T15:43:45;25.20;99.90
3190;DHT22;1606;51.946;10.558;2023-08-06T15:46:13;25.10;99.90
3190;DHT22;1606;51.946;10.558;2023-08-06T15:48:42;24.90;99.90
3190;DHT22;1606;51.946;10.558;2023-08-06T15:51:10;24.70;99.90
3190;DHT22;1606;51.946;10.558;2023-08-06T15:53:38;24.60;99.90